createdAt,value
2023-02-24T10:02:37.012Z,960.13
2023-02-24T10:03:37.211Z,960.01
2023-02-24T10:04:37.507Z,960.07
2023-02-24T10:05:37.824Z,960.03
2023-02-24T10:06:38.107Z,960.03
2023-02-24T10:07:38.491Z,960.03
2023-02-24T10:08:38.595Z,960.09
2023-02-24T10:09:38.903Z,960.09
2023-02-24T10:10:39.271Z,960.10
2023-02-24T10:11:39.410Z,960.06
2023-02-24T10:12:39.666Z,960.02
2023-02-24T10:13:39.918Z,960.02
2023-02-24T10:14:44.387Z,959.98
2023-02-24T10:15:40.319Z,959.94
2023-02-24T10:16:40.626Z,959.90
2023-02-24T10:17:40.785Z,959.90
2023-02-24T10:18:41.054Z,959.91
2023-02-24T10:19:41.354Z,959.91
2023-02-24T10:20:41.591Z,959.86
2023-02-24T10:21:41.861Z,959.81
2023-02-24T10:22:42.111Z,959.84
2023-02-24T10:23:43.364Z,959.87
2023-02-24T10:24:42.571Z,959.89
2023-02-24T10:25:42.842Z,959.90
2023-02-24T10:26:51.155Z,959.89
2023-02-24T10:27:44.227Z,959.89
2023-02-24T10:28:43.413Z,959.90
2023-02-24T10:29:43.681Z,959.87
2023-02-24T10:30:43.899Z,959.87
2023-02-24T10:31:44.115Z,959.83
2023-02-24T10:32:44.213Z,959.82
2023-02-24T10:33:44.346Z,959.83
2023-02-24T10:34:44.510Z,959.79
2023-02-24T10:35:44.787Z,959.77
2023-02-24T10:36:44.905Z,959.76
2023-02-24T10:37:45.177Z,959.74
2023-02-24T10:38:45.319Z,959.74
2023-02-24T10:39:45.578Z,959.69
2023-02-24T10:40:45.737Z,959.72
2023-02-24T10:41:45.970Z,959.71
2023-02-24T10:42:46.157Z,959.69
2023-02-24T10:43:46.323Z,959.65
2023-02-24T10:44:48.601Z,959.66
2023-02-24T10:45:46.719Z,959.64
2023-02-24T10:46:47.245Z,959.60
2023-02-24T10:47:46.988Z,959.55
2023-02-24T10:48:47.121Z,959.56
2023-02-24T10:49:47.390Z,959.49
2023-02-24T10:50:56.028Z,959.49
2023-02-24T10:51:48.761Z,959.52
2023-02-24T10:52:47.929Z,959.48
2023-02-24T10:53:48.205Z,959.41
2023-02-24T10:54:48.376Z,959.42
2023-02-24T10:55:48.513Z,959.35
2023-02-24T10:56:48.672Z,959.35
2023-02-24T10:57:58.529Z,959.33
2023-02-24T10:58:50.163Z,959.29
2023-02-24T10:59:49.366Z,959.25
2023-02-24T11:00:49.610Z,959.24
2023-02-24T11:01:49.783Z,959.23
2023-02-24T11:02:49.997Z,959.23
2023-02-24T11:03:50.111Z,959.17
2023-02-24T11:04:50.380Z,959.17
2023-02-24T11:05:50.503Z,959.17
2023-02-24T11:06:50.773Z,959.13
2023-02-24T11:07:50.903Z,959.10
2023-02-24T11:08:51.183Z,959.12
2023-02-24T11:09:51.295Z,959.09
2023-02-24T11:10:51.562Z,959.06
2023-02-24T11:11:51.797Z,959.06
2023-02-24T11:13:00.889Z,959.04
2023-02-24T11:13:53.293Z,958.99
2023-02-24T11:14:52.531Z,959.00
2023-02-24T11:15:52.660Z,958.93
2023-02-24T11:16:52.884Z,958.98
2023-02-24T11:17:53.158Z,958.94
2023-02-24T11:18:53.284Z,958.92
2023-02-24T11:19:53.419Z,958.93
2023-02-24T11:20:53.673Z,958.90
2023-02-24T11:21:53.795Z,958.91
2023-02-24T11:22:54.053Z,958.83
2023-02-24T11:23:54.183Z,958.80
2023-02-24T11:24:54.457Z,958.79
2023-02-24T11:25:54.587Z,958.80
2023-02-24T11:26:54.844Z,958.78
2023-02-24T11:27:55.075Z,958.75
2023-02-24T11:28:55.334Z,958.75
2023-02-24T11:29:55.566Z,958.73
2023-02-24T11:30:55.804Z,958.68
2023-02-24T11:31:56.089Z,958.70
2023-02-24T11:32:56.149Z,958.68
2023-02-24T11:33:56.248Z,958.69
2023-02-24T11:34:56.514Z,958.68
2023-02-24T11:35:56.634Z,958.65
2023-02-24T11:36:57.066Z,958.65
2023-02-24T11:37:57.017Z,958.63
2023-02-24T11:39:05.601Z,958.63
2023-02-24T11:39:58.405Z,958.60
2023-02-24T11:40:57.592Z,958.62
2023-02-24T11:41:57.828Z,958.59
2023-02-24T11:42:57.997Z,958.55
2023-02-24T11:43:58.125Z,958.53
2023-02-24T11:44:58.382Z,958.52
2023-02-24T11:45:58.563Z,958.47
2023-02-24T11:46:58.704Z,958.41
2023-02-24T11:47:58.832Z,958.40
2023-02-24T11:48:58.986Z,958.38
2023-02-24T11:49:59.127Z,958.34
2023-02-24T11:50:59.389Z,958.34
2023-02-24T11:51:59.534Z,958.29
2023-02-24T11:52:59.805Z,958.30
